Time;durP1;ratioP1;P1;durP2;ratioP2;P2;SDS_P1;SDS_P2;PMS_P1;PMS_P2;Temp;Humidity;BMP_temperature;BMP_pressure;BME280_temperature;BME280_humidity;BME280_pressure;Samples;Min_cycle;Max_cycle;Signal;HPM_P1;HPM_P2
2023/04/11 00:02:17;;;;;;;24.77;5.90;;;11.30;99.90;;;;;;6166086;23;20007;-87
2023/04/11 00:04:42;;;;;;;23.10;5.05;;;11.30;99.90;;;;;;6190950;23;20004;-86
2023/04/11 00:07:08;;;;;;;27.67;5.93;;;11.20;99.90;;;;;;6189795;23;20005;-87
2023/04/11 00:09:34;;;;;;;28.52;5.45;;;11.20;99.90;;;;;;6165704;23;20173;-87
2023/04/11 00:12:03;;;;;;;23.55;5.65;;;11.20;99.90;;;;;;6190312;23;19992;-87
2023/04/11 00:14:32;;;;;;;32.47;5.57;;;11.20;99.90;;;;;;6190525;23;19996;-86
2023/04/11 00:17:00;;;;;;;24.13;5.30;;;11.20;99.90;;;;;;6166792;23;19996;-87
2023/04/11 00:19:29;;;;;;;25.67;5.43;;;11.20;99.90;;;;;;6166757;23;20016;-87
2023/04/11 00:21:59;;;;;;;22.05;4.72;;;11.20;99.90;;;;;;6193540;23;20402;-86
2023/04/11 00:24:25;;;;;;;26.40;5.63;;;11.20;99.90;;;;;;6170259;23;20004;-86
2023/04/11 00:26:51;;;;;;;27.08;5.28;;;11.10;99.90;;;;;;6220670;23;20444;-86
2023/04/11 00:29:17;;;;;;;26.77;5.05;;;11.10;99.90;;;;;;6194306;23;20001;-87
2023/04/11 00:31:42;;;;;;;26.23;6.45;;;11.10;99.90;;;;;;6168617;23;20023;-87
2023/04/11 00:34:08;;;;;;;25.50;4.85;;;11.10;99.90;;;;;;6168936;23;20015;-86
2023/04/11 00:36:34;;;;;;;26.17;4.75;;;11.00;99.90;;;;;;6169201;23;20003;-86
2023/04/11 00:39:02;;;;;;;24.23;4.95;;;11.00;99.90;;;;;;6169067;23;20473;-86
2023/04/11 00:41:28;;;;;;;16.23;5.10;;;11.00;99.90;;;;;;6194623;23;20353;-86
2023/04/11 00:43:54;;;;;;;21.27;4.78;;;10.90;99.90;;;;;;6193560;23;20020;-91
2023/04/11 00:46:20;;;;;;;30.38;5.18;;;10.80;99.90;;;;;;6193468;23;20003;-86
2023/04/11 00:48:47;;;;;;;26.10;5.75;;;10.80;99.90;;;;;;6171591;23;20462;-87
2023/04/11 00:51:17;;;;;;;26.70;5.15;;;10.80;99.90;;;;;;6180166;23;20001;-87
2023/04/11 00:53:44;;;;;;;26.92;4.93;;;10.70;99.90;;;;;;6195218;23;20000;-87
2023/04/11 00:56:10;;;;;;;25.73;5.28;;;10.70;99.90;;;;;;6194687;23;19996;-86
2023/04/11 00:58:38;;;;;;;31.42;5.85;;;10.70;99.90;;;;;;6168888;23;20031;-86
2023/04/11 01:01:10;;;;;;;27.13;5.35;;;10.60;99.90;;;;;;6193959;23;20021;-86
2023/04/11 01:03:38;;;;;;;25.90;6.22;;;10.60;99.90;;;;;;6170684;23;20064;-86
2023/04/11 01:06:06;;;;;;;30.95;4.68;;;10.60;99.90;;;;;;6193388;23;20100;-86
2023/04/11 01:08:34;;;;;;;28.30;6.10;;;10.60;99.90;;;;;;6193816;23;20000;-86
2023/04/11 01:11:01;;;;;;;24.60;4.90;;;10.60;99.90;;;;;;6168984;23;20000;-87
2023/04/11 01:13:29;;;;;;;34.70;5.70;;;10.60;99.90;;;;;;6169148;23;19997;-86
2023/04/11 01:15:55;;;;;;;26.88;5.28;;;10.60;99.90;;;;;;6193101;23;20099;-86
2023/04/11 01:18:20;;;;;;;25.55;4.70;;;10.60;99.90;;;;;;6195188;23;19997;-86
2023/04/11 01:20:46;;;;;;;25.73;5.57;;;10.60;99.90;;;;;;6205339;22;19992;-87
2023/04/11 01:23:13;;;;;;;27.95;5.22;;;10.50;99.90;;;;;;6192641;23;19996;-86
2023/04/11 01:25:39;;;;;;;36.97;6.05;;;10.50;99.90;;;;;;6194263;23;20035;-86
2023/04/11 01:28:07;;;;;;;26.52;4.90;;;10.50;99.90;;;;;;6168419;23;20350;-86
2023/04/11 01:30:33;;;;;;;28.63;4.45;;;10.50;99.90;;;;;;6168778;23;20000;-86
2023/04/11 01:32:59;;;;;;;33.58;5.68;;;10.40;99.90;;;;;;6192051;23;20303;-85
2023/04/11 01:35:24;;;;;;;29.10;5.95;;;10.40;99.90;;;;;;6191470;23;20004;-87
2023/04/11 01:37:52;;;;;;;28.83;4.78;;;10.40;99.90;;;;;;6191771;23;20011;-86
2023/04/11 01:40:20;;;;;;;28.73;4.72;;;10.30;99.90;;;;;;6192447;23;20410;-86
2023/04/11 01:42:46;;;;;;;25.58;5.28;;;10.30;99.90;;;;;;6218514;23;19992;-86
2023/04/11 01:45:12;;;;;;;25.30;4.53;;;10.30;99.90;;;;;;6192268;23;20051;-86
2023/04/11 01:47:38;;;;;;;32.67;5.10;;;10.30;99.90;;;;;;6166936;23;20008;-86
2023/04/11 01:50:05;;;;;;;21.70;4.78;;;10.30;99.90;;;;;;6191076;23;20008;-86
2023/04/11 01:52:31;;;;;;;25.17;4.90;;;10.30;99.90;;;;;;6167221;23;20008;-86
2023/04/11 01:54:58;;;;;;;28.80;4.70;;;10.20;99.90;;;;;;6191760;23;20001;-86
2023/04/11 01:57:24;;;;;;;28.33;4.90;;;10.20;99.90;;;;;;6166583;23;20530;-86
2023/04/11 01:59:49;;;;;;;29.08;5.47;;;10.20;99.90;;;;;;6192179;23;20008;-86
2023/04/11 02:02:15;;;;;;;31.85;5.32;;;10.20;99.90;;;;;;6166798;23;20004;-86
2023/04/11 02:04:41;;;;;;;32.65;6.47;;;10.10;99.90;;;;;;6167142;23;20003;-86
2023/04/11 02:07:06;;;;;;;35.03;5.10;;;10.10;99.90;;;;;;6166991;23;19996;-87
2023/04/11 02:09:32;;;;;;;25.35;6.05;;;10.10;99.90;;;;;;6167237;23;20366;-87
2023/04/11 02:11:58;;;;;;;36.10;5.32;;;10.10;99.90;;;;;;6191563;23;20402;-85
2023/04/11 02:14:24;;;;;;;30.17;4.55;;;10.00;99.90;;;;;;6191508;23;19997;-86
2023/04/11 02:16:54;;;;;;;34.50;5.85;;;10.00;99.90;;;;;;6166859;23;20012;-85
2023/04/11 02:19:21;;;;;;;28.77;4.87;;;10.00;99.90;;;;;;6167416;23;20005;-85
2023/04/11 02:21:46;;;;;;;29.60;4.53;;;10.00;99.90;;;;;;6218152;23;20001;-86
2023/04/11 02:24:12;;;;;;;26.95;5.75;;;10.00;99.90;;;;;;6166487;23;20043;-86
2023/04/11 02:26:40;;;;;;;32.03;4.13;;;10.00;99.90;;;;;;6191639;23;19993;-86
2023/04/11 02:29:06;;;;;;;33.67;4.88;;;9.90;99.90;;;;;;6166684;23;20011;-87
2023/04/11 02:31:32;;;;;;;29.65;5.90;;;9.90;99.90;;;;;;6191163;23;20012;-87
2023/04/11 02:33:57;;;;;;;24.27;4.88;;;9.90;99.90;;;;;;6166613;23;19997;-86
2023/04/11 02:36:23;;;;;;;30.33;4.70;;;9.90;99.90;;;;;;6191574;23;20407;-86
2023/04/11 02:38:49;;;;;;;34.05;5.53;;;9.80;99.90;;;;;;6194302;23;20005;-87
2023/04/11 02:41:14;;;;;;;31.65;4.95;;;9.80;99.90;;;;;;6184737;23;20012;-87
2023/04/11 02:43:40;;;;;;;30.33;6.32;;;9.80;99.90;;;;;;6206718;23;20003;-86
2023/04/11 02:46:06;;;;;;;30.45;4.53;;;9.80;99.90;;;;;;6195943;23;20001;-86
2023/04/11 02:48:33;;;;;;;30.35;5.88;;;9.90;99.90;;;;;;6166689;23;20005;-86
2023/04/11 02:50:58;;;;;;;30.20;4.82;;;9.90;99.90;;;;;;6166552;23;20538;-86
2023/04/11 02:53:24;;;;;;;28.63;4.40;;;9.90;99.90;;;;;;6191332;23;20016;-85
2023/04/11 02:55:50;;;;;;;26.17;4.20;;;10.00;99.90;;;;;;6166685;23;20088;-86
2023/04/11 02:58:16;;;;;;;30.23;4.82;;;10.00;99.90;;;;;;6196568;23;20031;-87
2023/04/11 03:00:43;;;;;;;29.92;4.70;;;10.00;99.90;;;;;;6174590;23;20004;-86
2023/04/11 03:03:10;;;;;;;29.20;4.32;;;9.90;99.90;;;;;;6165798;23;20000;-86
2023/04/11 03:05:36;;;;;;;21.50;3.80;;;10.00;99.90;;;;;;6166583;23;20020;-86
2023/04/11 03:08:02;;;;;;;40.17;6.43;;;10.00;99.90;;;;;;6166470;23;20359;-86
2023/04/11 03:10:27;;;;;;;27.58;4.45;;;10.00;99.90;;;;;;6190957;23;20427;-86
2023/04/11 03:12:53;;;;;;;25.75;4.97;;;10.00;99.90;;;;;;6166080;23;20009;-86
2023/04/11 03:15:19;;;;;;;29.65;4.60;;;10.00;99.90;;;;;;6166073;23;20005;-87
2023/04/11 03:17:44;;;;;;;30.60;4.78;;;10.00;99.90;;;;;;6165738;23;20004;-86
2023/04/11 03:20:12;;;;;;;29.38;5.72;;;10.00;99.90;;;;;;6165655;23;20014;-87
2023/04/11 03:22:39;;;;;;;23.05;3.67;;;10.00;99.90;;;;;;6165836;23;20007;-86
2023/04/11 03:25:06;;;;;;;27.10;3.80;;;9.90;99.90;;;;;;6217286;23;20566;-87
2023/04/11 03:27:31;;;;;;;27.38;4.30;;;9.90;99.90;;;;;;6166142;23;20021;-86
2023/04/11 03:29:57;;;;;;;25.83;4.82;;;9.90;99.90;;;;;;6166131;23;20024;-87
2023/04/11 03:32:23;;;;;;;19.85;3.83;;;9.80;99.90;;;;;;6165262;23;20012;-87
2023/04/11 03:34:50;;;;;;;22.52;3.55;;;9.80;99.90;;;;;;6166347;23;20000;-86
2023/04/11 03:37:15;;;;;;;25.95;4.88;;;9.70;99.90;;;;;;6165952;23;20015;-86
2023/04/11 03:39:41;;;;;;;24.88;4.00;;;9.70;99.90;;;;;;6165796;23;20310;-86
2023/04/11 03:42:07;;;;;;;21.13;3.33;;;9.70;99.90;;;;;;6190494;23;20322;-86
2023/04/11 03:44:32;;;;;;;24.08;3.63;;;9.70;99.90;;;;;;6165279;23;20000;-86
2023/04/11 03:46:58;;;;;;;19.33;4.22;;;9.60;99.90;;;;;;6165705;23;20007;-87
2023/04/11 03:49:24;;;;;;;26.17;4.47;;;9.60;99.90;;;;;;6166161;23;20011;-86
2023/04/11 03:51:50;;;;;;;30.15;3.72;;;9.60;99.90;;;;;;6193266;23;20005;-86
2023/04/11 03:54:16;;;;;;;19.02;3.00;;;9.60;99.90;;;;;;6179366;23;20102;-88
2023/04/11 03:56:42;;;;;;;22.77;3.00;;;9.60;99.90;;;;;;6187728;23;20061;-86
2023/04/11 03:59:08;;;;;;;16.85;3.35;;;9.60;99.90;;;;;;6165398;23;20012;-86
2023/04/11 04:01:36;;;;;;;18.27;2.88;;;9.50;99.90;;;;;;6165583;23;20015;-86
2023/04/11 04:04:03;;;;;;;21.48;2.75;;;9.50;99.90;;;;;;6165595;23;20012;-87
2023/04/11 04:06:29;;;;;;;19.02;3.10;;;9.50;99.90;;;;;;6165558;23;20414;-87
2023/04/11 04:08:55;;;;;;;19.60;2.85;;;9.50;99.90;;;;;;6190402;23;20039;-87
2023/04/11 04:11:20;;;;;;;17.63;2.60;;;9.50;99.90;;;;;;6190396;23;20047;-90
2023/04/11 04:13:54;;;;;;;15.98;2.45;;;9.50;99.90;;;;;;6190427;23;19997;-86
2023/04/11 04:16:20;;;;;;;15.05;2.70;;;9.50;99.90;;;;;;6165573;23;19996;-86
2023/04/11 04:18:45;;;;;;;13.02;2.95;;;9.50;99.90;;;;;;6190106;23;20088;-86
2023/04/11 04:21:11;;;;;;;14.90;2.40;;;9.50;99.90;;;;;;6165670;23;20007;-86
2023/04/11 04:23:46;;;;;;;14.00;2.42;;;9.40;99.90;;;;;;6165252;23;20072;-86
2023/04/11 04:26:14;;;;;;;12.20;2.15;;;9.50;99.90;;;;;;6167243;23;20120;-86
2023/04/11 04:28:44;;;;;;;14.93;2.25;;;9.50;99.90;;;;;;6165841;23;20067;-86
2023/04/11 04:31:11;;;;;;;13.30;2.13;;;9.40;99.90;;;;;;6166054;23;20009;-86
2023/04/11 04:33:37;;;;;;;13.15;2.40;;;9.50;99.90;;;;;;6189981;23;20090;-86
2023/04/11 04:36:03;;;;;;;16.88;2.33;;;9.50;99.90;;;;;;6165551;23;19998;-86
2023/04/11 04:38:30;;;;;;;15.13;2.50;;;9.50;99.90;;;;;;6165576;23;20017;-86
2023/04/11 04:40:55;;;;;;;12.50;2.72;;;9.40;99.90;;;;;;6165739;23;20099;-86
2023/04/11 04:43:23;;;;;;;11.52;2.10;;;9.50;99.90;;;;;;6165931;23;19997;-86
2023/04/11 04:45:49;;;;;;;11.52;2.20;;;9.50;99.90;;;;;;6190341;23;19996;-86
2023/04/11 04:48:16;;;;;;;12.60;2.47;;;9.50;99.90;;;;;;6165834;23;20020;-86
2023/04/11 04:50:44;;;;;;;10.32;2.20;;;9.50;99.90;;;;;;6165896;23;20004;-86
2023/04/11 04:53:12;;;;;;;13.02;2.60;;;9.50;99.90;;;;;;6166130;23;20364;-88
2023/04/11 04:55:41;;;;;;;12.57;2.15;;;9.50;99.90;;;;;;6166088;23;20012;-86
2023/04/11 04:58:07;;;;;;;12.15;2.55;;;9.50;99.90;;;;;;6166480;23;20005;-85
2023/04/11 05:00:32;;;;;;;16.50;2.03;;;9.50;99.90;;;;;;6165332;23;20012;-87
2023/04/11 05:02:58;;;;;;;15.20;4.13;;;9.50;99.90;;;;;;6167749;23;19997;-86
2023/04/11 05:05:26;;;;;;;12.02;2.10;;;9.50;99.90;;;;;;6167598;23;20292;-85
2023/04/11 05:07:51;;;;;;;12.50;2.60;;;9.50;99.90;;;;;;6199705;23;20005;-86
2023/04/11 05:10:17;;;;;;;8.57;2.13;;;9.40;99.90;;;;;;6169334;23;20016;-84
2023/04/11 05:12:43;;;;;;;12.25;2.40;;;9.50;99.90;;;;;;6167268;23;20005;-86
2023/04/11 05:15:10;;;;;;;12.35;2.03;;;9.50;99.90;;;;;;6167150;23;20009;-85
2023/04/11 05:17:36;;;;;;;16.58;2.35;;;9.50;99.90;;;;;;6167581;23;20088;-85
2023/04/11 05:20:04;;;;;;;15.45;2.75;;;9.50;99.90;;;;;;6167781;23;20011;-85
2023/04/11 05:22:30;;;;;;;17.63;2.60;;;9.40;99.90;;;;;;6167470;23;20008;-88
2023/04/11 05:24:56;;;;;;;12.00;2.10;;;9.40;99.90;;;;;;6167205;23;20016;-85
2023/04/11 05:27:21;;;;;;;12.02;1.83;;;9.40;99.90;;;;;;6167029;23;20084;-86
2023/04/11 05:29:47;;;;;;;11.07;2.28;;;9.40;99.90;;;;;;6167337;23;20001;-85
2023/04/11 05:32:13;;;;;;;13.27;2.08;;;9.40;99.90;;;;;;6167147;23;20024;-86
2023/04/11 05:34:53;;;;;;;10.82;2.22;;;9.30;99.90;;;;;;6192344;23;20011;-85
2023/04/11 05:37:19;;;;;;;10.87;1.90;;;9.30;99.90;;;;;;6191888;23;20484;-86
2023/04/11 05:39:45;;;;;;;12.77;2.92;;;9.30;99.90;;;;;;6167000;23;20251;-85
2023/04/11 05:42:11;;;;;;;8.90;2.05;;;9.20;99.90;;;;;;6191981;23;20055;-86
2023/04/11 05:44:38;;;;;;;13.85;2.08;;;9.20;99.90;;;;;;6166765;23;20407;-86
2023/04/11 05:47:04;;;;;;;10.57;2.40;;;9.20;99.90;;;;;;6167686;23;20070;-86
2023/04/11 05:49:30;;;;;;;12.45;2.05;;;9.20;99.90;;;;;;6166504;23;20012;-85
2023/04/11 05:51:56;;;;;;;11.15;1.70;;;9.10;99.90;;;;;;6166783;23;20431;-87
2023/04/11 05:54:35;;;;;;;11.35;1.73;;;9.10;99.90;;;;;;6167288;23;20005;-85
2023/04/11 05:57:02;;;;;;;10.63;1.50;;;9.10;99.90;;;;;;6191797;23;20004;-86
2023/04/11 05:59:30;;;;;;;12.15;1.63;;;9.20;99.90;;;;;;6166696;23;20370;-85
2023/04/11 06:01:56;;;;;;;12.15;1.88;;;9.10;99.90;;;;;;6191910;23;20084;-88
2023/04/11 06:04:22;;;;;;;10.32;1.65;;;9.10;99.90;;;;;;6192686;23;20005;-86
2023/04/11 06:06:48;;;;;;;9.57;1.67;;;9.20;99.90;;;;;;6169779;23;20331;-85
2023/04/11 06:09:13;;;;;;;13.73;2.38;;;9.20;99.90;;;;;;6187131;23;20367;-86
2023/04/11 06:11:39;;;;;;;9.50;1.98;;;9.20;99.90;;;;;;6180065;23;20039;-87
2023/04/11 06:14:05;;;;;;;7.95;1.50;;;9.20;99.90;;;;;;6197954;23;20005;-87
2023/04/11 06:16:32;;;;;;;13.77;1.40;;;9.20;99.90;;;;;;6193269;23;20422;-87
2023/04/11 06:18:58;;;;;;;9.95;1.73;;;9.20;99.90;;;;;;6191832;23;20015;-86
2023/04/11 06:21:26;;;;;;;11.13;1.70;;;9.20;99.90;;;;;;6169013;23;20060;-87
2023/04/11 06:23:52;;;;;;;9.35;1.45;;;9.30;99.90;;;;;;6172214;23;20017;-87
2023/04/11 06:26:17;;;;;;;6.38;1.45;;;9.30;99.90;;;;;;6188038;23;20000;-88
2023/04/11 06:28:43;;;;;;;14.00;2.53;;;9.30;99.90;;;;;;6178816;23;20447;-87
2023/04/11 06:31:09;;;;;;;9.07;1.60;;;9.40;99.90;;;;;;6165785;23;20021;-86
2023/04/11 06:33:36;;;;;;;9.38;2.22;;;9.40;99.90;;;;;;6165135;23;20017;-86
2023/04/11 06:36:02;;;;;;;7.38;2.35;;;9.40;99.90;;;;;;6164528;23;20005;-85
2023/04/11 06:38:27;;;;;;;13.43;2.28;;;9.50;99.90;;;;;;6165707;23;20012;-84
2023/04/11 06:40:55;;;;;;;12.25;1.92;;;9.50;99.90;;;;;;6190976;23;20083;-87
2023/04/11 06:43:21;;;;;;;10.35;2.00;;;9.50;99.90;;;;;;6166792;23;20011;-87
2023/04/11 06:45:48;;;;;;;8.48;1.85;;;9.60;99.90;;;;;;6167200;23;20032;-87
2023/04/11 06:48:16;;;;;;;8.52;2.08;;;9.60;99.90;;;;;;6193271;23;20004;-88
2023/04/11 06:50:44;;;;;;;14.43;2.17;;;9.70;99.90;;;;;;6166052;23;20004;-90
2023/04/11 06:53:10;;;;;;;9.40;2.25;;;9.80;99.90;;;;;;6191639;23;20001;-87
2023/04/11 06:55:35;;;;;;;9.93;1.85;;;9.80;99.90;;;;;;6191883;23;20086;-88
2023/04/11 06:58:01;;;;;;;15.38;1.80;;;9.80;99.90;;;;;;6166895;23;20046;-88
2023/04/11 07:00:27;;;;;;;12.82;1.63;;;9.90;99.90;;;;;;6191085;23;20056;-87
2023/04/11 07:02:52;;;;;;;8.57;2.50;;;9.90;99.90;;;;;;6190614;23;20001;-87
2023/04/11 07:05:18;;;;;;;10.18;1.65;;;10.00;99.90;;;;;;6166000;23;20000;-87
2023/04/11 07:07:44;;;;;;;13.70;1.90;;;10.00;99.90;;;;;;6166304;23;20063;-87
2023/04/11 07:10:12;;;;;;;10.93;1.98;;;10.00;99.90;;;;;;6191479;23;20015;-87
2023/04/11 07:12:40;;;;;;;15.38;2.35;;;10.10;99.90;;;;;;6166921;23;20001;-87
2023/04/11 07:15:06;;;;;;;12.55;2.42;;;10.20;99.90;;;;;;6166712;23;20047;-89
2023/04/11 07:17:32;;;;;;;13.02;2.85;;;10.20;99.90;;;;;;6177880;23;20004;-87
2023/04/11 07:19:58;;;;;;;12.82;1.77;;;10.30;99.90;;;;;;6166251;23;20071;-86
2023/04/11 07:22:23;;;;;;;14.95;2.42;;;10.40;99.90;;;;;;6165915;23;20012;-86
2023/04/11 07:24:54;;;;;;;9.13;2.10;;;10.50;99.90;;;;;;6190558;23;20083;-87
2023/04/11 07:27:22;;;;;;;10.40;2.38;;;10.50;99.90;;;;;;6166239;23;20016;-87
2023/04/11 07:29:47;;;;;;;13.73;2.58;;;10.60;99.90;;;;;;6190387;23;20012;-87
2023/04/11 07:32:13;;;;;;;13.23;2.60;;;10.60;99.90;;;;;;6165903;23;20021;-88
2023/04/11 07:34:39;;;;;;;8.90;1.92;;;10.60;99.90;;;;;;6166803;23;20001;-87
2023/04/11 07:37:11;;;;;;;12.52;2.40;;;10.70;99.90;;;;;;6166025;23;20036;-86
2023/04/11 07:39:36;;;;;;;15.20;2.35;;;10.80;99.90;;;;;;6166600;23;20343;-86
2023/04/11 07:42:02;;;;;;;12.38;1.80;;;10.80;99.90;;;;;;6165355;23;20016;-86
2023/04/11 07:44:28;;;;;;;11.15;2.38;;;10.90;99.90;;;;;;6165616;23;20004;-87
2023/04/11 07:46:53;;;;;;;13.70;2.90;;;10.90;99.90;;;;;;6165681;23;20020;-87
2023/04/11 07:49:19;;;;;;;10.90;2.83;;;10.90;99.90;;;;;;6164899;23;20021;-86
2023/04/11 07:51:45;;;;;;;11.00;2.40;;;11.00;99.90;;;;;;6164529;23;20019;-86
2023/04/11 07:54:11;;;;;;;8.82;1.67;;;11.10;99.90;;;;;;6189794;23;20035;-86
2023/04/11 07:56:36;;;;;;;10.55;2.05;;;11.10;99.90;;;;;;6165505;23;20338;-86
2023/04/11 07:59:02;;;;;;;11.82;1.95;;;11.10;99.90;;;;;;6164848;23;20009;-86
2023/04/11 08:01:28;;;;;;;11.75;2.30;;;11.10;99.90;;;;;;6165461;23;20004;-85
2023/04/11 08:03:54;;;;;;;14.20;1.85;;;11.20;99.90;;;;;;6165213;23;20300;-86
2023/04/11 08:06:20;;;;;;;11.30;2.20;;;11.20;99.90;;;;;;6190131;23;20005;-85
2023/04/11 08:08:47;;;;;;;10.68;1.80;;;11.30;99.90;;;;;;6189450;23;20502;-87
2023/04/11 08:11:13;;;;;;;7.28;1.90;;;11.30;99.90;;;;;;6165526;23;20040;-86
2023/04/11 08:13:38;;;;;;;8.35;2.33;;;11.30;99.90;;;;;;6189977;23;19997;-86
2023/04/11 08:16:06;;;;;;;8.98;1.90;;;11.30;99.90;;;;;;6165969;23;20091;-86
2023/04/11 08:18:32;;;;;;;9.52;2.67;;;11.40;99.90;;;;;;6216975;23;20043;-86
2023/04/11 08:20:58;;;;;;;13.57;3.60;;;11.40;99.90;;;;;;6189716;23;20009;-86
2023/04/11 08:23:23;;;;;;;16.10;2.92;;;11.40;99.90;;;;;;6165667;23;20011;-86
2023/04/11 08:25:49;;;;;;;15.48;2.25;;;11.50;99.90;;;;;;6165740;23;20112;-86
2023/04/11 08:28:15;;;;;;;10.23;2.15;;;11.40;99.90;;;;;;6190403;23;20099;-86
2023/04/11 08:30:40;;;;;;;9.52;2.10;;;11.40;99.90;;;;;;6165868;23;20469;-86
2023/04/11 08:33:08;;;;;;;8.75;1.92;;;11.40;99.90;;;;;;6165362;23;20020;-87
2023/04/11 08:35:34;;;;;;;10.68;2.08;;;11.40;99.90;;;;;;6165917;23;20050;-87
2023/04/11 08:37:59;;;;;;;18.98;3.10;;;11.40;99.90;;;;;;6165625;23;20009;-86
2023/04/11 08:40:26;;;;;;;9.65;2.17;;;11.40;99.90;;;;;;6190758;23;20338;-86
2023/04/11 08:42:59;;;;;;;11.88;2.00;;;11.40;99.90;;;;;;6167667;23;20004;-88
2023/04/11 08:45:24;;;;;;;10.20;2.00;;;11.40;99.90;;;;;;6219366;23;20004;-86
2023/04/11 08:47:50;;;;;;;7.78;2.30;;;11.40;99.90;;;;;;6167590;23;20334;-86
2023/04/11 08:50:16;;;;;;;10.35;1.75;;;11.40;99.90;;;;;;6168131;23;20004;-86
2023/04/11 08:52:43;;;;;;;8.52;1.67;;;11.40;99.90;;;;;;6203498;23;20009;-87
2023/04/11 08:55:09;;;;;;;8.98;1.65;;;11.50;99.90;;;;;;6244143;22;19981;-90
2023/04/11 08:57:37;;;;;;;9.85;1.77;;;11.60;99.90;;;;;;6244698;22;20076;-86
2023/04/11 09:00:09;;;;;;;7.45;1.65;;;11.70;99.90;;;;;;6195572;23;20004;-86
2023/04/11 09:02:59;;;;;;;8.63;2.55;;;11.70;99.90;;;;;;6168035;23;20059;-86
2023/04/11 09:05:37;;;;;;;7.80;2.10;;;11.80;99.90;;;;;;6192007;23;20007;-86
2023/04/11 09:08:05;;;;;;;10.27;1.73;;;11.90;99.90;;;;;;6192063;23;20068;-85
2023/04/11 09:10:31;;;;;;;13.75;2.30;;;12.00;99.90;;;;;;6165501;23;20083;-87
2023/04/11 09:12:57;;;;;;;11.60;2.10;;;12.10;99.90;;;;;;6192511;23;19996;-86
2023/04/11 09:15:27;;;;;;;10.15;1.67;;;12.20;99.90;;;;;;6191723;23;20083;-85
2023/04/11 09:17:54;;;;;;;6.67;1.37;;;12.30;99.90;;;;;;6191133;23;20001;-86
2023/04/11 09:20:25;;;;;;;14.10;3.35;;;12.40;99.90;;;;;;6167424;23;20013;-87
2023/04/11 09:22:52;;;;;;;8.93;1.52;;;12.50;99.90;;;;;;6167447;23;20015;-86
2023/04/11 09:25:19;;;;;;;15.75;2.70;;;12.60;99.90;;;;;;6198936;23;20390;-87
2023/04/11 09:27:45;;;;;;;11.82;1.90;;;12.60;99.90;;;;;;6192074;23;20036;-85
2023/04/11 09:30:21;;;;;;;10.20;2.00;;;12.70;99.90;;;;;;6190677;23;20004;-85
2023/04/11 09:32:48;;;;;;;9.20;2.05;;;12.60;99.90;;;;;;6192664;23;20431;-85
2023/04/11 09:35:19;;;;;;;9.35;2.00;;;12.60;99.90;;;;;;6173911;23;20009;-85
2023/04/11 09:37:54;;;;;;;7.85;1.70;;;12.70;99.90;;;;;;6213054;23;20008;-85
2023/04/11 09:40:25;;;;;;;15.07;2.08;;;12.70;99.90;;;;;;6209416;23;20142;-87
2023/04/11 09:42:59;;;;;;;10.15;2.28;;;12.60;99.90;;;;;;6194716;23;20055;-85
2023/04/11 09:45:26;;;;;;;10.82;1.70;;;12.70;99.90;;;;;;6193110;23;20024;-85
2023/04/11 09:47:55;;;;;;;9.38;1.73;;;12.80;99.90;;;;;;6192172;23;20019;-86
2023/04/11 09:50:21;;;;;;;9.98;1.77;;;13.00;99.90;;;;;;6191799;23;20004;-85
2023/04/11 09:52:47;;;;;;;8.85;1.80;;;13.10;99.90;;;;;;6166764;23;20001;-85
2023/04/11 09:55:17;;;;;;;10.98;1.90;;;13.10;99.60;;;;;;6191366;23;20053;-85
2023/04/11 09:57:49;;;;;;;9.02;1.60;;;13.20;98.40;;;;;;6192041;23;20009;-85
2023/04/11 10:00:23;;;;;;;13.60;2.88;;;13.20;96.90;;;;;;6166954;23;20064;-85
2023/04/11 10:02:54;;;;;;;10.98;2.05;;;13.10;97.90;;;;;;6192082;23;20005;-86
2023/04/11 10:05:24;;;;;;;;;;;13.10;99.00;;;;;;6192113;23;20326;-85
2023/04/11 10:08:04;;;;;;;9.30;1.77;;;13.20;99.30;;;;;;6191999;23;20302;-86
2023/04/11 10:10:31;;;;;;;8.95;2.60;;;13.20;99.00;;;;;;6191357;23;20095;-87
2023/04/11 10:12:57;;;;;;;9.68;1.77;;;13.20;97.50;;;;;;6166894;23;20304;-86
2023/04/11 10:15:25;;;;;;;8.27;1.70;;;13.20;97.90;;;;;;6167002;23;20020;-85
2023/04/11 10:18:10;;;;;;;8.43;1.63;;;13.20;98.20;;;;;;6166136;23;20091;-85
2023/04/11 10:20:42;;;;;;;8.38;1.65;;;13.20;97.00;;;;;;6165860;23;20090;-85
2023/04/11 10:23:08;;;;;;;7.90;1.20;;;13.10;95.80;;;;;;6166747;23;20001;-86
2023/04/11 10:25:54;;;;;;;11.27;2.00;;;13.00;96.00;;;;;;6191120;23;20051;-85
2023/04/11 10:28:33;;;;;;;7.47;1.50;;;13.00;94.90;;;;;;6188470;23;20031;-85
2023/04/11 10:31:03;;;;;;;9.48;1.85;;;13.00;94.90;;;;;;6166421;23;20009;-86
2023/04/11 10:33:29;;;;;;;10.00;2.00;;;12.90;94.10;;;;;;6190786;23;20478;-85
2023/04/11 10:36:09;;;;;;;7.88;1.38;;;13.00;94.90;;;;;;6166321;23;20004;-85
2023/04/11 10:38:47;;;;;;;9.10;1.20;;;13.00;94.90;;;;;;6191428;23;20653;-86
2023/04/11 10:41:19;;;;;;;9.05;1.60;;;13.00;94.20;;;;;;6190818;23;20004;-86
2023/04/11 10:43:45;;;;;;;9.52;1.65;;;13.00;94.50;;;;;;6191131;23;20001;-85
2023/04/11 10:46:21;;;;;;;10.35;1.80;;;13.10;93.80;;;;;;6166119;23;20004;-91
2023/04/11 10:49:04;;;;;;;5.78;1.40;;;13.10;94.10;;;;;;6191041;23;20004;-85
2023/04/11 10:51:31;;;;;;;6.95;1.85;;;13.10;93.50;;;;;;6165919;23;20012;-85
2023/04/11 10:54:00;;;;;;;7.82;2.28;;;13.20;93.60;;;;;;6190573;23;20295;-86
2023/04/11 10:56:41;;;;;;;5.88;1.38;;;13.30;93.30;;;;;;6190731;23;20048;-86
2023/04/11 10:59:27;;;;;;;6.30;1.60;;;13.40;92.40;;;;;;6190778;23;20008;-86
2023/04/11 11:01:59;;;;;;;5.97;1.10;;;13.50;90.50;;;;;;6171193;23;20016;-86
2023/04/11 11:04:35;;;;;;;5.35;1.10;;;13.60;90.00;;;;;;6165996;23;20028;-86
2023/04/11 11:07:03;;;;;;;7.38;2.38;;;13.70;86.60;;;;;;6217088;23;20497;-86
2023/04/11 11:09:30;;;;;;;6.15;1.95;;;13.80;86.60;;;;;;6191055;23;20001;-85
2023/04/11 11:12:10;;;;;;;4.50;1.20;;;13.90;88.50;;;;;;6190952;23;20048;-85
2023/04/11 11:14:36;;;;;;;6.68;1.50;;;14.00;88.10;;;;;;6190984;23;20000;-85
2023/04/11 11:17:02;;;;;;;13.48;2.30;;;14.10;85.10;;;;;;6191066;23;20055;-85
2023/04/11 11:19:29;;;;;;;9.43;2.65;;;14.20;85.10;;;;;;6190856;23;20011;-85
2023/04/11 11:21:55;;;;;;;5.30;1.30;;;14.30;86.30;;;;;;6166113;23;20008;-85
2023/04/11 11:24:27;;;;;;;7.40;1.30;;;14.40;86.40;;;;;;6167131;23;20032;-88
2023/04/11 11:26:54;;;;;;;6.88;1.83;;;14.50;85.50;;;;;;6208948;23;20024;-86
2023/04/11 11:29:52;;;;;;;9.27;2.15;;;14.50;82.80;;;;;;6192525;23;20322;-92
2023/04/11 11:32:23;;;;;;;6.85;1.58;;;14.50;83.40;;;;;;6186506;23;20052;-90
2023/04/11 11:34:51;;;;;;;5.25;1.50;;;14.60;82.20;;;;;;6217574;23;20001;-84
2023/04/11 11:37:17;;;;;;;7.68;1.55;;;14.70;84.30;;;;;;6165966;23;20008;-85
2023/04/11 11:39:47;;;;;;;6.57;1.45;;;14.80;82.70;;;;;;6166309;23;20421;-91
2023/04/11 11:42:15;;;;;;;8.27;1.63;;;14.70;79.10;;;;;;6191715;23;20415;-87
2023/04/11 11:44:44;;;;;;;9.50;1.88;;;14.70;81.70;;;;;;6190614;23;19997;-87
2023/04/11 11:47:15;;;;;;;6.30;1.50;;;14.70;80.80;;;;;;6166772;23;20000;-86
2023/04/11 11:49:49;;;;;;;8.32;1.88;;;14.70;82.40;;;;;;6190953;23;20000;-87
2023/04/11 11:52:33;;;;;;;6.30;1.35;;;14.70;83.00;;;;;;6166936;23;20015;-88
2023/04/11 11:58:42;;;;;;;9.93;1.60;;;14.80;82.00;;;;;;6217883;23;20445;-86
2023/04/11 12:01:12;;;;;;;7.35;1.48;;;14.90;80.40;;;;;;6191355;23;20001;-85
2023/04/11 12:07:10;;;;;;;8.55;1.48;;;14.90;80.80;;;;;;6218198;23;20030;-86
2023/04/11 12:09:36;;;;;;;6.97;1.90;;;15.00;81.10;;;;;;6191182;23;20321;-87
2023/04/11 12:12:18;;;;;;;5.20;1.23;;;15.00;80.00;;;;;;6166767;23;20025;-87
2023/04/11 12:14:53;;;;;;;6.47;1.20;;;15.10;80.10;;;;;;6167655;23;20000;-87
2023/04/11 12:17:19;;;;;;;7.55;1.45;;;15.20;78.80;;;;;;6166931;23;20308;-87
2023/04/11 12:19:48;;;;;;;9.00;1.83;;;15.30;79.70;;;;;;6191158;23;19997;-87
2023/04/11 12:25:41;;;;;;;8.48;1.38;;;15.60;79.30;;;;;;6217815;23;20469;-87
2023/04/11 12:35:28;;;;;;;8.32;1.83;;;15.60;71.80;;;;;;6218092;23;20011;-87
2023/04/11 12:37:53;;;;;;;5.78;1.58;;;15.40;71.40;;;;;;6191303;23;20039;-87
2023/04/11 12:40:19;;;;;;;9.48;2.92;;;15.30;70.60;;;;;;6191596;23;20001;-87
2023/04/11 12:42:46;;;;;;;6.68;1.83;;;15.40;72.50;;;;;;6166854;23;20009;-85
2023/04/11 12:45:12;;;;;;;7.50;1.60;;;15.50;72.80;;;;;;6191604;23;20363;-87
2023/04/11 12:47:39;;;;;;;9.18;2.00;;;15.50;71.70;;;;;;6166654;23;20008;-87
2023/04/11 12:50:43;;;;;;;5.40;1.33;;;15.50;68.90;;;;;;6191252;23;20050;-86
2023/04/11 12:56:39;;;;;;;4.47;1.15;;;15.70;66.60;;;;;;6218028;23;20067;-87
2023/04/11 13:02:40;;;;;;;10.30;1.27;;;15.70;64.00;;;;;;6218952;23;20003;-87
2023/04/11 13:08:42;;;;;;;8.70;1.17;;;15.70;65.70;;;;;;6243228;22;20004;-87
2023/04/11 13:11:08;;;;;;;7.75;1.70;;;15.70;67.60;;;;;;6192291;23;20004;-87
2023/04/11 13:13:33;;;;;;;6.53;1.92;;;15.80;68.40;;;;;;6200003;23;20433;-87
2023/04/11 13:15:59;;;;;;;8.30;2.40;;;15.80;67.10;;;;;;6166601;23;20008;-87